sensor_id;sensor_type;location;lat;lon;timestamp;pressure;altitude;pressure_sealevel;temperature;humidity
54453;BME280;40363;52.270;10.546;2023-11-22T00:00:19;78430.03;;;-147.06;94.72
54453;BME280;40363;52.270;10.546;2023-11-22T00:02:47;78423.88;;;-147.06;92.14
54453;BME280;40363;52.270;10.546;2023-11-22T00:05:13;78430.03;;;-147.06;92.59
54453;BME280;40363;52.270;10.546;2023-11-22T00:07:40;78432.09;;;-147.06;92.77
54453;BME280;40363;52.270;10.546;2023-11-22T00:10:08;78430.03;;;-147.06;93.54
54453;BME280;40363;52.270;10.546;2023-11-22T00:12:35;78440.31;;;-147.06;93.85
54453;BME280;40363;52.270;10.546;2023-11-22T00:15:04;78440.31;;;-147.06;94.34
54453;BME280;40363;52.270;10.546;2023-11-22T00:17:32;78440.31;;;-147.06;93.69
54453;BME280;40363;52.270;10.546;2023-11-22T00:19:59;78430.03;;;-147.06;93.30
54453;BME280;40363;52.270;10.546;2023-11-22T00:22:30;78440.31;;;-147.06;92.28
54453;BME280;40363;52.270;10.546;2023-11-22T00:24:57;78448.53;;;-147.06;92.79
54453;BME280;40363;52.270;10.546;2023-11-22T00:27:25;78450.59;;;-147.06;93.17
54453;BME280;40363;52.270;10.546;2023-11-22T00:29:52;78452.66;;;-147.06;93.34
54453;BME280;40363;52.270;10.546;2023-11-22T00:32:19;78458.81;;;-147.06;93.56
54453;BME280;40363;52.270;10.546;2023-11-22T00:34:45;78467.06;;;-147.06;93.86
54453;BME280;40363;52.270;10.546;2023-11-22T00:37:13;78454.72;;;-147.06;93.79
54453;BME280;40363;52.270;10.546;2023-11-22T00:39:40;78446.50;;;-147.06;93.86
54453;BME280;40363;52.270;10.546;2023-11-22T00:42:06;78446.50;;;-147.06;94.53
54453;BME280;40363;52.270;10.546;2023-11-22T00:44:34;78448.53;;;-147.06;94.29
54453;BME280;40363;52.270;10.546;2023-11-22T00:47:01;78458.81;;;-147.06;94.74
54453;BME280;40363;52.270;10.546;2023-11-22T00:49:28;78452.66;;;-147.06;94.95
54453;BME280;40363;52.270;10.546;2023-11-22T00:51:54;78460.88;;;-147.06;95.37
54453;BME280;40363;52.270;10.546;2023-11-22T00:54:22;78446.50;;;-147.06;96.03
54453;BME280;40363;52.270;10.546;2023-11-22T00:56:48;78450.59;;;-147.06;96.29
54453;BME280;40363;52.270;10.546;2023-11-22T00:59:15;78450.59;;;-147.06;95.79
54453;BME280;40363;52.270;10.546;2023-11-22T01:01:43;78462.94;;;-147.06;96.78
54453;BME280;40363;52.270;10.546;2023-11-22T01:04:09;78460.88;;;-147.06;97.75
54453;BME280;40363;52.270;10.546;2023-11-22T01:06:36;78454.72;;;-147.06;96.57
54453;BME280;40363;52.270;10.546;2023-11-22T01:09:03;78462.94;;;-147.06;96.17
54453;BME280;40363;52.270;10.546;2023-11-22T01:11:30;78467.06;;;-147.06;96.16
54453;BME280;40363;52.270;10.546;2023-11-22T01:13:56;78475.28;;;-147.06;96.90
54453;BME280;40363;52.270;10.546;2023-11-22T01:16:23;78483.50;;;-147.06;96.27
54453;BME280;40363;52.270;10.546;2023-11-22T01:18:51;78481.44;;;-147.06;97.80
54453;BME280;40363;52.270;10.546;2023-11-22T01:21:18;78483.50;;;-147.06;96.37
54453;BME280;40363;52.270;10.546;2023-11-22T01:23:44;78487.63;;;-147.06;96.09
54453;BME280;40363;52.270;10.546;2023-11-22T01:26:11;78489.66;;;-147.06;96.50
54453;BME280;40363;52.270;10.546;2023-11-22T01:28:38;78475.28;;;-147.06;96.01
54453;BME280;40363;52.270;10.546;2023-11-22T01:31:11;78477.34;;;-147.06;97.13
54453;BME280;40363;52.270;10.546;2023-11-22T01:33:38;78493.78;;;-147.06;96.19
54453;BME280;40363;52.270;10.546;2023-11-22T01:36:06;78499.94;;;-147.06;96.86
54453;BME280;40363;52.270;10.546;2023-11-22T01:38:34;78524.63;;;-147.06;96.57
54453;BME280;40363;52.270;10.546;2023-11-22T01:41:01;78532.84;;;-147.06;97.14
54453;BME280;40363;52.270;10.546;2023-11-22T01:43:27;78543.13;;;-147.06;97.15
54453;BME280;40363;52.270;10.546;2023-11-22T01:45:54;78549.31;;;-147.06;97.55
54453;BME280;40363;52.270;10.546;2023-11-22T01:48:21;78536.97;;;-147.06;98.94
54453;BME280;40363;52.270;10.546;2023-11-22T01:50:48;78553.41;;;-147.06;99.52
54453;BME280;40363;52.270;10.546;2023-11-22T01:53:16;78571.94;;;-147.06;99.78
54453;BME280;40363;52.270;10.546;2023-11-22T01:55:43;78580.16;;;-147.06;100.00
54453;BME280;40363;52.270;10.546;2023-11-22T01:58:11;78578.09;;;-147.06;100.00
54453;BME280;40363;52.270;10.546;2023-11-22T02:00:44;78569.88;;;-147.06;100.00
54453;BME280;40363;52.270;10.546;2023-11-22T02:03:14;78590.44;;;-147.06;100.00
54453;BME280;40363;52.270;10.546;2023-11-22T02:22:32;78635.69;;;-147.06;100.00
54453;BME280;40363;52.270;10.546;2023-11-22T02:25:00;78650.06;;;-147.06;100.00
54453;BME280;40363;52.270;10.546;2023-11-22T02:27:27;78652.13;;;-147.06;100.00
54453;BME280;40363;52.270;10.546;2023-11-22T02:29:54;78668.59;;;-147.06;100.00
54453;BME280;40363;52.270;10.546;2023-11-22T02:32:20;78680.91;;;-147.06;100.00
54453;BME280;40363;52.270;10.546;2023-11-22T02:34:48;78682.97;;;-147.06;100.00
54453;BME280;40363;52.270;10.546;2023-11-22T02:37:15;78705.59;;;-147.06;100.00
54453;BME280;40363;52.270;10.546;2023-11-22T02:39:47;78707.66;;;-147.06;100.00
54453;BME280;40363;52.270;10.546;2023-11-22T02:42:19;78701.50;;;-147.06;100.00
54453;BME280;40363;52.270;10.546;2023-11-22T02:44:46;78707.66;;;-147.06;100.00
54453;BME280;40363;52.270;10.546;2023-11-22T02:47:12;78701.50;;;-147.06;100.00
54453;BME280;40363;52.270;10.546;2023-11-22T02:49:39;78711.78;;;-147.06;100.00
54453;BME280;40363;52.270;10.546;2023-11-22T02:52:06;78730.28;;;-147.06;100.00
54453;BME280;40363;52.270;10.546;2023-11-22T02:54:32;78720.00;;;-147.06;100.00
54453;BME280;40363;52.270;10.546;2023-11-22T02:56:59;78734.38;;;-147.06;100.00
54453;BME280;40363;52.270;10.546;2023-11-22T02:59:28;78734.38;;;-147.06;100.00
54453;BME280;40363;52.270;10.546;2023-11-22T03:01:54;78736.44;;;-147.06;100.00
54453;BME280;40363;52.270;10.546;2023-11-22T03:04:22;78746.72;;;-147.06;100.00
54453;BME280;40363;52.270;10.546;2023-11-22T03:06:48;78759.06;;;-147.06;100.00
54453;BME280;40363;52.270;10.546;2023-11-22T03:09:15;78763.19;;;-147.06;100.00
54453;BME280;40363;52.270;10.546;2023-11-22T03:11:42;78779.63;;;-147.06;100.00
54453;BME280;40363;52.270;10.546;2023-11-22T03:14:08;78781.69;;;-147.06;100.00
54453;BME280;40363;52.270;10.546;2023-11-22T03:16:39;78787.88;;;-147.06;100.00
54453;BME280;40363;52.270;10.546;2023-11-22T03:19:05;78789.91;;;-147.06;100.00
54453;BME280;40363;52.270;10.546;2023-11-22T03:21:32;78796.09;;;-147.06;100.00
54453;BME280;40363;52.270;10.546;2023-11-22T03:24:01;78798.16;;;-147.06;100.00
54453;BME280;40363;52.270;10.546;2023-11-22T03:26:29;78802.25;;;-147.06;100.00
54453;BME280;40363;52.270;10.546;2023-11-22T03:28:56;78794.03;;;-147.06;100.00
54453;BME280;40363;52.270;10.546;2023-11-22T03:31:22;78798.16;;;-147.06;100.00
54453;BME280;40363;52.270;10.546;2023-11-22T03:33:50;78791.97;;;-147.06;100.00
54453;BME280;40363;52.270;10.546;2023-11-22T03:36:17;78796.09;;;-147.06;100.00
54453;BME280;40363;52.270;10.546;2023-11-22T03:38:44;78810.47;;;-147.06;100.00
54453;BME280;40363;52.270;10.546;2023-11-22T03:41:10;78812.53;;;-147.06;100.00
54453;BME280;40363;52.270;10.546;2023-11-22T03:43:37;78822.81;;;-147.06;100.00
54453;BME280;40363;52.270;10.546;2023-11-22T03:46:04;78816.66;;;-147.06;100.00
54453;BME280;40363;52.270;10.546;2023-11-22T03:48:30;78820.75;;;-147.06;100.00
54453;BME280;40363;52.270;10.546;2023-11-22T03:50:58;78808.44;;;-147.06;100.00
54453;BME280;40363;52.270;10.546;2023-11-22T03:53:25;78824.88;;;-147.06;100.00
54453;BME280;40363;52.270;10.546;2023-11-22T03:55:52;78826.94;;;-147.06;100.00
54453;BME280;40363;52.270;10.546;2023-11-22T03:58:19;78841.34;;;-147.06;100.00
54453;BME280;40363;52.270;10.546;2023-11-22T04:00:46;78845.44;;;-147.06;100.00
54453;BME280;40363;52.270;10.546;2023-11-22T04:03:12;78843.38;;;-147.06;100.00
54453;BME280;40363;52.270;10.546;2023-11-22T04:05:39;78843.38;;;-147.06;100.00
54453;BME280;40363;52.270;10.546;2023-11-22T04:08:07;78845.44;;;-147.06;100.00
54453;BME280;40363;52.270;10.546;2023-11-22T04:10:35;78853.66;;;-147.06;100.00
54453;BME280;40363;52.270;10.546;2023-11-22T04:13:01;78857.78;;;-147.06;100.00
54453;BME280;40363;52.270;10.546;2023-11-22T04:15:28;78859.84;;;-147.06;100.00
54453;BME280;40363;52.270;10.546;2023-11-22T04:17:55;78868.06;;;-147.06;100.00
54453;BME280;40363;52.270;10.546;2023-11-22T04:20:21;78882.47;;;-147.06;100.00
54453;BME280;40363;52.270;10.546;2023-11-22T04:22:48;78898.91;;;-147.06;100.00
54453;BME280;40363;52.270;10.546;2023-11-22T04:25:16;78898.91;;;-147.06;100.00
54453;BME280;40363;52.270;10.546;2023-11-22T04:27:43;78898.91;;;-147.06;100.00
54453;BME280;40363;52.270;10.546;2023-11-22T04:30:11;78894.81;;;-147.06;100.00
54453;BME280;40363;52.270;10.546;2023-11-22T04:32:39;78907.16;;;-147.06;100.00
54453;BME280;40363;52.270;10.546;2023-11-22T04:35:07;78907.16;;;-147.06;100.00
54453;BME280;40363;52.270;10.546;2023-11-22T04:37:35;78921.53;;;-147.06;100.00
54453;BME280;40363;52.270;10.546;2023-11-22T04:40:01;78919.47;;;-147.06;100.00
54453;BME280;40363;52.270;10.546;2023-11-22T04:42:31;78952.38;;;-147.06;100.00
54453;BME280;40363;52.270;10.546;2023-11-22T04:44:58;78952.38;;;-147.06;100.00
54453;BME280;40363;52.270;10.546;2023-11-22T04:47:24;78952.38;;;-147.06;100.00
54453;BME280;40363;52.270;10.546;2023-11-22T04:49:51;78962.66;;;-147.06;100.00
54453;BME280;40363;52.270;10.546;2023-11-22T04:52:18;78968.84;;;-147.06;100.00
54453;BME280;40363;52.270;10.546;2023-11-22T04:54:45;78968.84;;;-147.06;100.00
54453;BME280;40363;52.270;10.546;2023-11-22T04:57:11;78975.00;;;-147.06;100.00
54453;BME280;40363;52.270;10.546;2023-11-22T04:59:39;78977.06;;;-147.06;100.00
54453;BME280;40363;52.270;10.546;2023-11-22T05:02:06;78985.28;;;-147.06;100.00
54453;BME280;40363;52.270;10.546;2023-11-22T05:04:33;78987.34;;;-147.06;100.00
54453;BME280;40363;52.270;10.546;2023-11-22T05:07:00;78995.56;;;-147.06;100.00
54453;BME280;40363;52.270;10.546;2023-11-22T05:09:26;78995.56;;;-147.06;100.00
54453;BME280;40363;52.270;10.546;2023-11-22T05:11:53;78993.53;;;-147.06;100.00
54453;BME280;40363;52.270;10.546;2023-11-22T05:14:20;78989.41;;;-147.06;100.00
54453;BME280;40363;52.270;10.546;2023-11-22T05:16:48;78987.34;;;-147.06;100.00
54453;BME280;40363;52.270;10.546;2023-11-22T05:19:16;78993.53;;;-147.06;100.00
54453;BME280;40363;52.270;10.546;2023-11-22T05:21:43;78985.28;;;-147.06;100.00
54453;BME280;40363;52.270;10.546;2023-11-22T05:24:09;78993.53;;;-147.06;100.00
54453;BME280;40363;52.270;10.546;2023-11-22T05:26:36;78995.56;;;-147.06;100.00
54453;BME280;40363;52.270;10.546;2023-11-22T05:29:03;79007.91;;;-147.06;100.00
54453;BME280;40363;52.270;10.546;2023-11-22T05:31:30;79003.81;;;-147.06;100.00
54453;BME280;40363;52.270;10.546;2023-11-22T05:33:58;79005.84;;;-147.06;100.00
54453;BME280;40363;52.270;10.546;2023-11-22T05:36:25;79012.03;;;-147.06;100.00
54453;BME280;40363;52.270;10.546;2023-11-22T05:38:52;79022.31;;;-147.06;100.00
54453;BME280;40363;52.270;10.546;2023-11-22T05:41:18;79024.38;;;-147.06;100.00
54453;BME280;40363;52.270;10.546;2023-11-22T05:43:45;79036.72;;;-147.06;100.00
54453;BME280;40363;52.270;10.546;2023-11-22T05:46:12;79036.72;;;-147.06;100.00
54453;BME280;40363;52.270;10.546;2023-11-22T05:48:38;79038.78;;;-147.06;100.00
54453;BME280;40363;52.270;10.546;2023-11-22T05:51:07;79042.88;;;-147.06;100.00
54453;BME280;40363;52.270;10.546;2023-11-22T05:53:33;79044.94;;;-147.06;100.00
54453;BME280;40363;52.270;10.546;2023-11-22T05:56:01;79051.09;;;-147.06;100.00
54453;BME280;40363;52.270;10.546;2023-11-22T05:58:28;79057.28;;;-147.06;100.00
54453;BME280;40363;52.270;10.546;2023-11-22T06:00:55;79067.56;;;-147.06;100.00
54453;BME280;40363;52.270;10.546;2023-11-22T06:03:22;79067.56;;;-147.06;100.00
54453;BME280;40363;52.270;10.546;2023-11-22T06:05:49;79067.56;;;-147.06;100.00
54453;BME280;40363;52.270;10.546;2023-11-22T06:08:17;79077.84;;;-147.06;100.00
54453;BME280;40363;52.270;10.546;2023-11-22T06:10:44;79088.13;;;-147.06;100.00
54453;BME280;40363;52.270;10.546;2023-11-22T06:13:10;79104.59;;;-147.06;100.00
54453;BME280;40363;52.270;10.546;2023-11-22T06:15:37;79084.00;;;-147.06;100.00
54453;BME280;40363;52.270;10.546;2023-11-22T06:18:04;79098.41;;;-147.06;100.00
54453;BME280;40363;52.270;10.546;2023-11-22T06:20:31;79110.75;;;-147.06;100.00
54453;BME280;40363;52.270;10.546;2023-11-22T06:22:58;79114.88;;;-147.06;100.00
54453;BME280;40363;52.270;10.546;2023-11-22T06:25:27;79118.97;;;-147.06;100.00
54453;BME280;40363;52.270;10.546;2023-11-22T06:27:53;79168.34;;;-147.06;100.00
54453;BME280;40363;52.270;10.546;2023-11-22T06:30:21;79166.28;;;-147.06;100.00
54453;BME280;40363;52.270;10.546;2023-11-22T06:32:48;79164.22;;;-147.06;100.00
54453;BME280;40363;52.270;10.546;2023-11-22T06:35:15;79162.16;;;-147.06;100.00
54453;BME280;40363;52.270;10.546;2023-11-22T06:37:43;79176.56;;;-147.06;100.00
54453;BME280;40363;52.270;10.546;2023-11-22T06:40:11;79182.75;;;-147.06;100.00
54453;BME280;40363;52.270;10.546;2023-11-22T06:42:40;79178.63;;;-147.06;100.00
54453;BME280;40363;52.270;10.546;2023-11-22T06:45:07;79174.50;;;-147.06;100.00
54453;BME280;40363;52.270;10.546;2023-11-22T06:47:35;79176.56;;;-147.06;100.00
54453;BME280;40363;52.270;10.546;2023-11-22T06:50:03;79178.63;;;-147.06;100.00
54453;BME280;40363;52.270;10.546;2023-11-22T06:52:34;79166.28;;;-147.06;100.00
54453;BME280;40363;52.270;10.546;2023-11-22T06:55:01;79160.13;;;-147.06;100.00
54453;BME280;40363;52.270;10.546;2023-11-22T06:57:27;79151.88;;;-147.06;100.00
54453;BME280;40363;52.270;10.546;2023-11-22T06:59:56;79145.72;;;-147.06;100.00
54453;BME280;40363;52.270;10.546;2023-11-22T07:02:23;79147.78;;;-147.06;100.00
54453;BME280;40363;52.270;10.546;2023-11-22T07:04:50;79108.69;;;-147.06;100.00
54453;BME280;40363;52.270;10.546;2023-11-22T07:07:18;79075.78;;;-147.06;100.00
54453;BME280;40363;52.270;10.546;2023-11-22T07:09:45;79075.78;;;-147.06;100.00
54453;BME280;40363;52.270;10.546;2023-11-22T07:12:11;79092.25;;;-147.06;100.00
54453;BME280;40363;52.270;10.546;2023-11-22T07:14:38;79100.47;;;-147.06;100.00
54453;BME280;40363;52.270;10.546;2023-11-22T07:17:06;79135.44;;;-147.06;100.00
54453;BME280;40363;52.270;10.546;2023-11-22T07:19:33;79143.66;;;-147.06;100.00
54453;BME280;40363;52.270;10.546;2023-11-22T07:22:03;79149.84;;;-147.06;100.00
54453;BME280;40363;52.270;10.546;2023-11-22T07:24:35;79118.97;;;-147.06;100.00
54453;BME280;40363;52.270;10.546;2023-11-22T07:27:03;79100.47;;;-147.06;100.00
54453;BME280;40363;52.270;10.546;2023-11-22T07:29:30;79084.00;;;-147.06;100.00
54453;BME280;40363;52.270;10.546;2023-11-22T07:31:58;79079.91;;;-147.06;100.00
54453;BME280;40363;52.270;10.546;2023-11-22T07:34:26;79077.84;;;-147.06;100.00
54453;BME280;40363;52.270;10.546;2023-11-22T07:36:53;79100.47;;;-147.06;100.00
54453;BME280;40363;52.270;10.546;2023-11-22T07:39:20;79073.72;;;-147.06;100.00
54453;BME280;40363;52.270;10.546;2023-11-22T07:41:52;79061.41;;;-147.06;100.00
54453;BME280;40363;52.270;10.546;2023-11-22T07:44:20;79084.00;;;-147.06;100.00
54453;BME280;40363;52.270;10.546;2023-11-22T07:46:47;79133.38;;;-147.06;100.00
54453;BME280;40363;52.270;10.546;2023-11-22T07:49:14;79116.91;;;-147.06;100.00
54453;BME280;40363;52.270;10.546;2023-11-22T07:51:43;79125.16;;;-147.06;100.00
54453;BME280;40363;52.270;10.546;2023-11-22T07:54:11;79067.56;;;-147.06;100.00
54453;BME280;40363;52.270;10.546;2023-11-22T07:56:40;79042.88;;;-147.06;100.00
54453;BME280;40363;52.270;10.546;2023-11-22T07:59:08;79069.63;;;-147.06;100.00
54453;BME280;40363;52.270;10.546;2023-11-22T08:01:36;79047.00;;;-147.06;100.00
54453;BME280;40363;52.270;10.546;2023-11-22T08:04:03;79026.44;;;-147.06;100.00
54453;BME280;40363;52.270;10.546;2023-11-22T08:06:31;79016.16;;;-147.06;98.55
54453;BME280;40363;52.270;10.546;2023-11-22T08:08:59;79016.16;;;-147.06;96.57
54453;BME280;40363;52.270;10.546;2023-11-22T08:11:27;79042.88;;;-147.06;96.57
54453;BME280;40363;52.270;10.546;2023-11-22T08:13:53;79061.41;;;-147.06;96.08
54453;BME280;40363;52.270;10.546;2023-11-22T08:16:23;79030.53;;;-147.06;94.61
54453;BME280;40363;52.270;10.546;2023-11-22T08:18:50;79018.19;;;-147.06;94.84
54453;BME280;40363;52.270;10.546;2023-11-22T08:21:17;79047.00;;;-147.06;94.19
54453;BME280;40363;52.270;10.546;2023-11-22T08:23:43;78995.56;;;-147.06;94.77
54453;BME280;40363;52.270;10.546;2023-11-22T08:26:13;78970.91;;;-147.06;93.75
54453;BME280;40363;52.270;10.546;2023-11-22T08:28:41;78958.56;;;-147.06;92.93
54453;BME280;40363;52.270;10.546;2023-11-22T08:31:07;78952.38;;;-147.06;90.93
54453;BME280;40363;52.270;10.546;2023-11-22T08:33:35;79055.22;;;-147.06;90.24
54453;BME280;40363;52.270;10.546;2023-11-22T08:36:03;78993.53;;;-147.06;90.60
54453;BME280;40363;52.270;10.546;2023-11-22T08:38:30;79044.94;;;-147.06;90.09
54453;BME280;40363;52.270;10.546;2023-11-22T08:41:00;79001.75;;;-147.06;89.47
54453;BME280;40363;52.270;10.546;2023-11-22T08:43:28;79005.84;;;-147.06;88.84
54453;BME280;40363;52.270;10.546;2023-11-22T08:45:57;78977.06;;;-147.06;87.69
54453;BME280;40363;52.270;10.546;2023-11-22T08:48:24;78960.63;;;-147.06;85.74
54453;BME280;40363;52.270;10.546;2023-11-22T08:50:51;79030.53;;;-147.06;85.58
54453;BME280;40363;52.270;10.546;2023-11-22T08:53:19;78981.19;;;-147.06;86.05
54453;BME280;40363;52.270;10.546;2023-11-22T08:55:46;78948.28;;;-147.06;85.84
54453;BME280;40363;52.270;10.546;2023-11-22T08:58:12;78962.66;;;-147.06;85.09
54453;BME280;40363;52.270;10.546;2023-11-22T09:00:40;78929.75;;;-147.06;83.99
54453;BME280;40363;52.270;10.546;2023-11-22T09:03:07;78925.66;;;-147.06;83.85
54453;BME280;40363;52.270;10.546;2023-11-22T09:05:36;78913.31;;;-147.06;84.13
54453;BME280;40363;52.270;10.546;2023-11-22T09:08:03;78905.09;;;-147.06;83.86
54453;BME280;40363;52.270;10.546;2023-11-22T09:10:30;78905.09;;;-147.06;83.80
54453;BME280;40363;52.270;10.546;2023-11-22T09:12:57;78894.81;;;-147.06;84.62
54453;BME280;40363;52.270;10.546;2023-11-22T09:15:25;78886.56;;;-147.06;82.87
54453;BME280;40363;52.270;10.546;2023-11-22T09:17:56;78911.25;;;-147.06;81.85
54453;BME280;40363;52.270;10.546;2023-11-22T09:20:23;78894.81;;;-147.06;81.80
54453;BME280;40363;52.270;10.546;2023-11-22T09:22:50;78845.44;;;-147.06;80.81
54453;BME280;40363;52.270;10.546;2023-11-22T09:25:20;78861.91;;;-147.06;81.58
54453;BME280;40363;52.270;10.546;2023-11-22T09:27:47;78878.34;;;-147.06;81.96
54453;BME280;40363;52.270;10.546;2023-11-22T09:30:18;78851.63;;;-147.06;79.98
54453;BME280;40363;52.270;10.546;2023-11-22T09:32:59;78847.50;;;-147.06;79.89
54453;BME280;40363;52.270;10.546;2023-11-22T09:35:26;78866.00;;;-147.06;80.33
54453;BME280;40363;52.270;10.546;2023-11-22T09:37:54;78890.69;;;-147.06;81.61
54453;BME280;40363;52.270;10.546;2023-11-22T09:40:22;78866.00;;;-147.06;81.01
54453;BME280;40363;52.270;10.546;2023-11-22T09:42:49;78886.56;;;-147.06;80.15
54453;BME280;40363;52.270;10.546;2023-11-22T09:45:19;78886.56;;;-147.06;81.52
54453;BME280;40363;52.270;10.546;2023-11-22T09:47:46;78849.56;;;-147.06;79.92
54453;BME280;40363;52.270;10.546;2023-11-22T09:50:19;78837.22;;;-147.06;78.71
54453;BME280;40363;52.270;10.546;2023-11-22T09:52:47;78837.22;;;-147.06;77.64
54453;BME280;40363;52.270;10.546;2023-11-22T09:55:15;78802.25;;;-147.06;77.38
54453;BME280;40363;52.270;10.546;2023-11-22T09:57:43;78791.97;;;-147.06;76.68
54453;BME280;40363;52.270;10.546;2023-11-22T10:00:11;78779.63;;;-147.06;76.69
54453;BME280;40363;52.270;10.546;2023-11-22T10:02:39;78835.16;;;-147.06;75.06
54453;BME280;40363;52.270;10.546;2023-11-22T10:05:07;78845.44;;;-147.06;74.66
54453;BME280;40363;52.270;10.546;2023-11-22T10:07:36;78824.88;;;-147.06;74.06
54453;BME280;40363;52.270;10.546;2023-11-22T10:10:04;78826.94;;;-147.06;76.23
54453;BME280;40363;52.270;10.546;2023-11-22T10:12:36;78820.75;;;-147.06;76.73
54453;BME280;40363;52.270;10.546;2023-11-22T10:15:12;78818.72;;;-147.06;75.86
54453;BME280;40363;52.270;10.546;2023-11-22T10:17:39;78812.53;;;-147.06;75.16
54453;BME280;40363;52.270;10.546;2023-11-22T10:20:07;78804.31;;;-147.06;74.73
54453;BME280;40363;52.270;10.546;2023-11-22T10:22:45;78810.47;;;-147.06;73.66
54453;BME280;40363;52.270;10.546;2023-11-22T10:25:13;78812.53;;;-147.06;72.86
54453;BME280;40363;52.270;10.546;2023-11-22T10:27:44;78841.34;;;-147.06;72.92
54453;BME280;40363;52.270;10.546;2023-11-22T10:30:11;78853.66;;;-147.06;72.93
54453;BME280;40363;52.270;10.546;2023-11-22T10:32:40;78870.13;;;-147.06;73.99
54453;BME280;40363;52.270;10.546;2023-11-22T10:35:08;78849.56;;;-147.06;75.50
54453;BME280;40363;52.270;10.546;2023-11-22T10:37:35;78839.28;;;-147.06;74.90
54453;BME280;40363;52.270;10.546;2023-11-22T10:40:04;78829.00;;;-147.06;74.89
54453;BME280;40363;52.270;10.546;2023-11-22T10:42:33;78859.84;;;-147.06;76.47
54453;BME280;40363;52.270;10.546;2023-11-22T10:45:00;78857.78;;;-147.06;75.47
54453;BME280;40363;52.270;10.546;2023-11-22T10:47:29;78878.34;;;-147.06;76.61
54453;BME280;40363;52.270;10.546;2023-11-22T10:49:56;78888.63;;;-147.06;75.80
54453;BME280;40363;52.270;10.546;2023-11-22T10:52:27;78913.31;;;-147.06;77.65
54453;BME280;40363;52.270;10.546;2023-11-22T10:55:00;78911.25;;;-147.06;76.42
54453;BME280;40363;52.270;10.546;2023-11-22T10:57:31;78915.38;;;-147.06;76.81
54453;BME280;40363;52.270;10.546;2023-11-22T11:00:02;78872.19;;;-147.06;76.68
54453;BME280;40363;52.270;10.546;2023-11-22T11:02:41;78853.66;;;-147.06;76.66
54453;BME280;40363;52.270;10.546;2023-11-22T11:05:14;78824.88;;;-147.06;75.56
54453;BME280;40363;52.270;10.546;2023-11-22T11:07:47;78808.44;;;-147.06;74.81
54453;BME280;40363;52.270;10.546;2023-11-22T11:10:16;78804.31;;;-147.06;75.19
54453;BME280;40363;52.270;10.546;2023-11-22T11:12:46;78787.88;;;-147.06;74.68
54453;BME280;40363;52.270;10.546;2023-11-22T11:15:14;78794.03;;;-147.06;76.04
54453;BME280;40363;52.270;10.546;2023-11-22T11:17:43;78759.06;;;-147.06;75.38
54453;BME280;40363;52.270;10.546;2023-11-22T11:20:12;78734.38;;;-147.06;74.24
54453;BME280;40363;52.270;10.546;2023-11-22T11:22:39;78773.47;;;-147.06;74.37
54453;BME280;40363;52.270;10.546;2023-11-22T11:25:07;78746.72;;;-147.06;74.60
54453;BME280;40363;52.270;10.546;2023-11-22T11:27:35;78744.66;;;-147.06;74.57
54453;BME280;40363;52.270;10.546;2023-11-22T11:33:01;78754.97;;;-147.06;73.80
54453;BME280;40363;52.270;10.546;2023-11-22T11:35:37;78845.44;;;-147.06;75.05
54453;BME280;40363;52.270;10.546;2023-11-22T11:38:04;78861.91;;;-147.06;75.74
54453;BME280;40363;52.270;10.546;2023-11-22T11:40:34;78851.63;;;-147.06;74.90
54453;BME280;40363;52.270;10.546;2023-11-22T11:43:01;78806.38;;;-147.06;74.17
54453;BME280;40363;52.270;10.546;2023-11-22T11:45:28;78779.63;;;-147.06;73.16
54453;BME280;40363;52.270;10.546;2023-11-22T11:47:56;78759.06;;;-147.06;72.29
54453;BME280;40363;52.270;10.546;2023-11-22T11:50:24;78754.97;;;-147.06;72.60
54453;BME280;40363;52.270;10.546;2023-11-22T11:52:52;78754.97;;;-147.06;72.45
54453;BME280;40363;52.270;10.546;2023-11-22T11:55:19;78746.72;;;-147.06;72.45
54453;BME280;40363;52.270;10.546;2023-11-22T11:57:46;78767.28;;;-147.06;72.58
54453;BME280;40363;52.270;10.546;2023-11-22T12:00:14;78738.50;;;-147.06;71.72
54453;BME280;40363;52.270;10.546;2023-11-22T12:02:40;78722.06;;;-147.06;69.77
54453;BME280;40363;52.270;10.546;2023-11-22T12:05:07;78705.59;;;-147.06;69.07
54453;BME280;40363;52.270;10.546;2023-11-22T12:07:36;78687.09;;;-147.06;69.10
54453;BME280;40363;52.270;10.546;2023-11-22T12:10:03;78689.16;;;-147.06;69.23
54453;BME280;40363;52.270;10.546;2023-11-22T12:12:31;78678.88;;;-147.06;68.48
54453;BME280;40363;52.270;10.546;2023-11-22T12:14:58;78664.47;;;-147.06;68.35
54453;BME280;40363;52.270;10.546;2023-11-22T12:19:52;78672.69;;;-147.06;68.23
54453;BME280;40363;52.270;10.546;2023-11-22T12:22:20;78670.63;;;-147.06;68.50
54453;BME280;40363;52.270;10.546;2023-11-22T12:24:48;78722.06;;;-147.06;67.57
54453;BME280;40363;52.270;10.546;2023-11-22T12:27:16;78726.16;;;-147.06;68.58
54453;BME280;40363;52.270;10.546;2023-11-22T12:29:43;78680.91;;;-147.06;68.70
54453;BME280;40363;52.270;10.546;2023-11-22T12:32:11;78685.03;;;-147.06;66.77
54453;BME280;40363;52.270;10.546;2023-11-22T12:34:39;78705.59;;;-147.06;68.84
54453;BME280;40363;52.270;10.546;2023-11-22T12:37:05;78668.59;;;-147.06;68.88
54453;BME280;40363;52.270;10.546;2023-11-22T12:39:32;78761.13;;;-147.06;70.18
54453;BME280;40363;52.270;10.546;2023-11-22T12:42:04;78697.38;;;-147.06;70.14
54453;BME280;40363;52.270;10.546;2023-11-22T12:44:30;78744.66;;;-147.06;70.54
54453;BME280;40363;52.270;10.546;2023-11-22T12:46:58;78754.97;;;-147.06;71.92
54453;BME280;40363;52.270;10.546;2023-11-22T12:49:29;78763.19;;;-147.06;72.00